createdAt,value
2023-08-11T03:34:34.849Z,98692.72
2023-08-11T03:54:45.178Z,98705.34
2023-08-11T04:14:49.033Z,98708.34
2023-08-11T04:34:55.266Z,98718.91
2023-08-11T04:54:58.239Z,98718.28
2023-08-11T05:15:01.082Z,98727.75
2023-08-11T05:35:07.166Z,98746.53
2023-08-11T06:15:27.335Z,98745.72
2023-08-11T06:35:30.840Z,98750.41
2023-08-11T06:55:33.575Z,98752.94
2023-08-11T07:15:39.088Z,98754.12
2023-08-11T07:35:42.122Z,98764.63
2023-08-11T07:55:44.893Z,98773.50
2023-08-11T08:15:47.622Z,98773.25
2023-08-11T08:35:50.352Z,98776.97
2023-08-11T08:55:53.290Z,98773.94
2023-08-11T09:15:56.191Z,98773.44
2023-08-11T09:35:59.014Z,98770.78
2023-08-11T09:56:01.770Z,98760.59
2023-08-11T10:16:15.014Z,98765.59
2023-08-11T10:36:18.050Z,98738.72
2023-08-11T10:56:27.430Z,98745.09
2023-08-11T11:16:30.196Z,98734.41
2023-08-11T11:36:34.143Z,98728.47
2023-08-11T11:56:38.110Z,98723.03
2023-08-11T12:16:42.562Z,98732.12
2023-08-11T12:36:45.398Z,98716.50
2023-08-11T12:56:48.256Z,98725.06
2023-08-11T13:16:51.324Z,98711.16
2023-08-11T13:36:54.207Z,98706.31
2023-08-11T13:56:56.952Z,98707.66
2023-08-11T14:16:59.663Z,98703.31
2023-08-11T14:37:02.715Z,98690.34
2023-08-11T14:57:05.734Z,98691.91
2023-08-11T15:17:09.655Z,98680.41
2023-08-11T15:37:13.861Z,98676.75
2023-08-11T15:57:16.578Z,98675.63
2023-08-11T16:17:20.070Z,98667.06
2023-08-11T16:37:25.450Z,98665.72
2023-08-11T16:57:28.263Z,98671.41
2023-08-11T17:17:30.943Z,98666.78
2023-08-11T17:37:33.652Z,98672.41
2023-08-11T17:57:36.348Z,98684.78
2023-08-11T18:17:39.102Z,98702.41
2023-08-11T18:37:41.972Z,98710.16
2023-08-11T18:57:44.791Z,98722.66
2023-08-11T19:17:47.528Z,98729.59
2023-08-11T19:37:50.306Z,98733.72
2023-08-11T19:57:53.031Z,98737.19
2023-08-11T20:17:55.770Z,98741.63
2023-08-11T20:37:59.018Z,98738.50
2023-08-11T21:18:19.222Z,98751.25
2023-08-11T21:58:38.862Z,98753.84
2023-08-11T22:18:42.058Z,98738.09
2023-08-11T22:58:58.173Z,98745.47
2023-08-11T23:19:00.884Z,98738.16
2023-08-11T23:39:03.517Z,98734.84
2023-08-11T23:59:06.398Z,98725.03
